Time;durP1;ratioP1;P1;durP2;ratioP2;P2;SDS_P1;SDS_P2;PMS_P1;PMS_P2;Temp;Humidity;BMP_temperature;BMP_pressure;BME280_temperature;BME280_humidity;BME280_pressure;Samples;Min_cycle;Max_cycle;Signal;HPM_P1;HPM_P2
2023/01/02 00:02:08;;;;;;;10.82;3.20;;;;;;;;;;5045509;28;20033;-77
2023/01/02 00:04:34;;;;;;;12.77;3.10;;;;;;;;;;5027452;28;20056;-77
2023/01/02 00:06:59;;;;;;;12.63;3.50;;;;;;;;;;5034765;28;20052;-77
2023/01/02 00:09:24;;;;;;;6.25;2.70;;;;;;;;;;5031065;28;20068;-77
2023/01/02 00:11:50;;;;;;;7.50;2.88;;;;;;;;;;5044861;28;20059;-77
2023/01/02 00:14:15;;;;;;;3.72;2.13;;;;;;;;;;5044641;28;20044;-77
2023/01/02 00:16:40;;;;;;;7.35;2.60;;;;;;;;;;5018505;28;20029;-77
2023/01/02 00:19:07;;;;;;;6.97;2.60;;;;;;;;;;5025394;28;20101;-77
2023/01/02 00:21:33;;;;;;;5.80;2.38;;;;;;;;;;5027758;28;20120;-77
2023/01/02 00:23:58;;;;;;;6.53;2.70;;;;;;;;;;5017050;28;20143;-77
2023/01/02 00:26:23;;;;;;;6.18;2.95;;;;;;;;;;5036830;28;20506;-77
2023/01/02 00:28:48;;;;;;;9.50;3.03;;;;;;;;;;5027660;28;20044;-77
2023/01/02 00:31:14;;;;;;;5.05;2.50;;;;;;;;;;5028481;28;20029;-77
2023/01/02 00:33:39;;;;;;;7.53;2.92;;;;;;;;;;5044505;28;20037;-77
2023/01/02 00:36:06;;;;;;;5.93;1.92;;;;;;;;;;5044602;28;20037;-77
2023/01/02 00:38:32;;;;;;;6.28;2.88;;;;;;;;;;5033834;28;20045;-77
2023/01/02 00:40:57;;;;;;;7.68;2.95;;;;;;;;;;5022993;28;20025;-76
2023/01/02 00:43:23;;;;;;;7.88;2.08;;;;;;;;;;5044600;28;20037;-76
2023/01/02 00:45:48;;;;;;;7.13;2.75;;;;;;;;;;5045608;28;20767;-77
2023/01/02 00:48:14;;;;;;;5.35;2.72;;;;;;;;;;5023189;28;20036;-77
2023/01/02 00:50:39;;;;;;;6.55;2.30;;;;;;;;;;5040403;28;20086;-77
2023/01/02 00:53:04;;;;;;;7.82;2.50;;;;;;;;;;5045121;28;20441;-76
2023/01/02 00:55:29;;;;;;;7.35;2.33;;;;;;;;;;5045088;28;20074;-76
2023/01/02 00:57:55;;;;;;;8.13;3.15;;;;;;;;;;5045364;28;20021;-77
2023/01/02 01:00:20;;;;;;;9.88;3.53;;;;;;;;;;5045209;28;20159;-77
2023/01/02 01:02:46;;;;;;;6.05;3.25;;;;;;;;;;5037448;28;20046;-77
2023/01/02 01:05:11;;;;;;;3.20;1.77;;;;;;;;;;5024923;28;20072;-77
2023/01/02 01:07:36;;;;;;;11.05;3.30;;;;;;;;;;5032568;28;20032;-77
2023/01/02 01:10:02;;;;;;;12.43;4.75;;;;;;;;;;5045353;28;20428;-77
2023/01/02 01:12:27;;;;;;;6.28;3.15;;;;;;;;;;5032821;28;20116;-76
2023/01/02 01:14:52;;;;;;;10.63;4.28;;;;;;;;;;5016775;28;20099;-77
2023/01/02 01:17:18;;;;;;;9.15;3.40;;;;;;;;;;5026009;28;20064;-77
2023/01/02 01:19:43;;;;;;;12.98;4.07;;;;;;;;;;5044902;28;20052;-76
2023/01/02 01:22:08;;;;;;;16.50;4.60;;;;;;;;;;5044351;28;20027;-76
2023/01/02 01:24:33;;;;;;;10.82;4.28;;;;;;;;;;5019683;28;20033;-77
2023/01/02 01:26:59;;;;;;;15.45;4.63;;;;;;;;;;5036790;28;20458;-77
2023/01/02 01:29:24;;;;;;;10.32;3.65;;;;;;;;;;5019806;28;20115;-76
2023/01/02 01:31:49;;;;;;;11.90;3.42;;;;;;;;;;5047328;28;20036;-77
2023/01/02 01:34:16;;;;;;;7.90;3.70;;;;;;;;;;5031099;28;20028;-76
2023/01/02 01:36:41;;;;;;;10.88;3.53;;;;;;;;;;5048612;28;20025;-77
2023/01/02 01:39:07;;;;;;;9.48;3.60;;;;;;;;;;5030351;28;20529;-77
2023/01/02 01:41:32;;;;;;;10.25;3.75;;;;;;;;;;5030049;28;20041;-77
2023/01/02 01:44:00;;;;;;;9.63;4.35;;;;;;;;;;5029192;28;20033;-77
2023/01/02 01:46:37;;;;;;;9.73;4.15;;;;;;;;;;5030876;28;20029;-77
2023/01/02 01:49:08;;;;;;;7.38;3.10;;;;;;;;;;5029933;28;20100;-77
2023/01/02 01:51:40;;;;;;;11.55;3.88;;;;;;;;;;5047255;28;20569;-77
2023/01/02 01:54:11;;;;;;;11.82;4.80;;;;;;;;;;5038630;28;20038;-77
2023/01/02 01:56:42;;;;;;;10.93;4.05;;;;;;;;;;5009372;28;20049;-77
2023/01/02 01:59:09;;;;;;;7.28;2.90;;;;;;;;;;5049013;28;20052;-77
2023/01/02 02:01:35;;;;;;;13.52;4.93;;;;;;;;;;5048834;28;20044;-76
2023/01/02 02:04:00;;;;;;;13.23;4.45;;;;;;;;;;5049195;28;20097;-77
2023/01/02 02:06:26;;;;;;;10.10;3.80;;;;;;;;;;5029886;28;20124;-77
2023/01/02 02:08:58;;;;;;;11.75;3.95;;;;;;;;;;5020532;28;20507;-78
2023/01/02 02:11:24;;;;;;;9.45;3.50;;;;;;;;;;5013386;28;20134;-76
2023/01/02 02:13:49;;;;;;;9.80;3.35;;;;;;;;;;5037753;28;20049;-77
2023/01/02 02:16:14;;;;;;;7.22;3.08;;;;;;;;;;5046566;28;20082;-77
2023/01/02 02:18:48;;;;;;;12.50;3.33;;;;;;;;;;5030343;28;20028;-76
2023/01/02 02:21:33;;;;;;;8.93;3.90;;;;;;;;;;5029264;28;20518;-76
2023/01/02 02:24:33;;;;;;;5.78;2.78;;;;;;;;;;5046091;28;20086;-76
2023/01/02 02:27:09;;;;;;;5.18;2.78;;;;;;;;;;5022357;28;20627;-76
2023/01/02 02:30:06;;;;;;;9.95;3.03;;;;;;;;;;5048541;28;20116;-76
2023/01/02 02:33:11;;;;;;;5.88;2.55;;;;;;;;;;5030526;28;20033;-76
2023/01/02 02:35:48;;;;;;;;;;;;;;;;;;5032055;28;20037;-77
2023/01/02 02:38:34;;;;;;;7.53;2.97;;;;;;;;;;5036841;28;19913;-77
2023/01/02 02:41:21;;;;;;;8.32;3.17;;;;;;;;;;5022596;28;20124;-77
2023/01/02 02:44:11;;;;;;;5.72;2.40;;;;;;;;;;5047772;28;20037;-77
2023/01/02 02:47:09;;;;;;;6.00;2.28;;;;;;;;;;5036869;28;20075;-77
2023/01/02 02:50:04;;;;;;;7.65;2.50;;;;;;;;;;5008871;28;20041;-77
2023/01/02 02:52:37;;;;;;;6.57;2.70;;;;;;;;;;5042072;28;20067;-77
2023/01/02 02:55:16;;;;;;;3.80;2.00;;;;;;;;;;5046681;28;20033;-77
2023/01/02 02:57:44;;;;;;;5.63;2.78;;;;;;;;;;5037472;28;20029;-77
2023/01/02 03:00:13;;;;;;;10.68;2.50;;;;;;;;;;5047470;28;20037;-77
2023/01/02 03:02:39;;;;;;;6.10;2.33;;;;;;;;;;5045456;28;20572;-77
2023/01/02 03:05:08;;;;;;;4.70;2.60;;;;;;;;;;5028445;28;20033;-77
2023/01/02 03:07:57;;;;;;;5.47;2.70;;;;;;;;;;5029050;28;20048;-77
2023/01/02 03:10:44;;;;;;;6.78;2.78;;;;;;;;;;5028471;28;20498;-77
2023/01/02 03:13:20;;;;;;;8.35;2.42;;;;;;;;;;5047032;28;20111;-77
2023/01/02 03:16:02;;;;;;;7.90;2.38;;;;;;;;;;5028157;28;20095;-77
2023/01/02 03:18:38;;;;;;;2.35;1.48;;;;;;;;;;5029000;28;20510;-77
2023/01/02 03:21:09;;;;;;;9.07;2.30;;;;;;;;;;5028261;28;20035;-77
2023/01/02 03:23:44;;;;;;;6.43;2.38;;;;;;;;;;5028019;28;20192;-77
2023/01/02 03:26:13;;;;;;;6.50;2.88;;;;;;;;;;5034620;28;20140;-77
2023/01/02 03:28:41;;;;;;;5.43;2.20;;;;;;;;;;5029018;28;20029;-77
2023/01/02 03:31:10;;;;;;;5.57;2.15;;;;;;;;;;5034951;28;20017;-77
2023/01/02 03:33:39;;;;;;;4.97;2.15;;;;;;;;;;5026521;28;20032;-77
2023/01/02 03:36:09;;;;;;;9.07;2.33;;;;;;;;;;5035850;28;20029;-77
2023/01/02 03:38:39;;;;;;;8.00;2.22;;;;;;;;;;5037049;28;20032;-77
2023/01/02 03:41:12;;;;;;;5.65;2.05;;;;;;;;;;5032293;28;20458;-77
2023/01/02 03:43:40;;;;;;;4.03;1.85;;;;;;;;;;5042565;28;20029;-77
2023/01/02 03:46:16;;;;;;;6.72;2.45;;;;;;;;;;5027869;28;20096;-77
2023/01/02 03:48:48;;;;;;;4.75;1.70;;;;;;;;;;5034350;28;20132;-75
2023/01/02 03:51:13;;;;;;;5.05;2.00;;;;;;;;;;5041509;28;20087;-77
2023/01/02 03:53:39;;;;;;;5.00;2.22;;;;;;;;;;5022689;28;20450;-77
2023/01/02 03:56:08;;;;;;;5.18;2.25;;;;;;;;;;5028719;28;20036;-77
2023/01/02 03:58:46;;;;;;;6.03;1.80;;;;;;;;;;5028328;28;20028;-77
2023/01/02 04:01:24;;;;;;;7.60;1.80;;;;;;;;;;5043256;28;20021;-77
2023/01/02 04:03:56;;;;;;;6.40;1.75;;;;;;;;;;5010862;28;20049;-77
2023/01/02 04:06:32;;;;;;;3.97;1.92;;;;;;;;;;5028235;28;20032;-77
2023/01/02 04:09:04;;;;;;;7.40;2.05;;;;;;;;;;5027463;28;20063;-77
2023/01/02 04:11:32;;;;;;;4.57;2.08;;;;;;;;;;5046609;28;20037;-77
2023/01/02 04:14:02;;;;;;;6.60;1.88;;;;;;;;;;5027483;28;20029;-76
2023/01/02 04:16:32;;;;;;;4.72;2.00;;;;;;;;;;5045776;28;20044;-76
2023/01/02 04:19:03;;;;;;;4.18;2.00;;;;;;;;;;5028977;28;20021;-76
2023/01/02 04:21:33;;;;;;;4.05;2.42;;;;;;;;;;5045344;28;20529;-76
2023/01/02 04:24:05;;;;;;;6.05;1.60;;;;;;;;;;5044997;28;20520;-77
2023/01/02 04:26:35;;;;;;;4.97;1.70;;;;;;;;;;5027248;28;20091;-76
2023/01/02 04:29:01;;;;;;;3.83;1.63;;;;;;;;;;5046320;28;20775;-76
2023/01/02 04:31:35;;;;;;;4.60;1.88;;;;;;;;;;5043056;28;20028;-77
2023/01/02 04:34:02;;;;;;;4.03;1.58;;;;;;;;;;5033822;28;20017;-77
2023/01/02 04:36:27;;;;;;;7.78;2.22;;;;;;;;;;5020390;28;20059;-77
2023/01/02 04:38:53;;;;;;;3.88;1.70;;;;;;;;;;5040421;28;20132;-77
2023/01/02 04:41:25;;;;;;;3.55;1.88;;;;;;;;;;5016933;28;20071;-77
2023/01/02 04:43:57;;;;;;;6.60;2.10;;;;;;;;;;5016712;28;20129;-77
2023/01/02 04:46:24;;;;;;;4.30;1.83;;;;;;;;;;5015104;28;20017;-77
2023/01/02 04:48:50;;;;;;;6.47;2.22;;;;;;;;;;5018523;28;20584;-76
2023/01/02 04:51:15;;;;;;;5.60;1.70;;;;;;;;;;5038908;28;20037;-77
2023/01/02 04:53:41;;;;;;;3.95;1.42;;;;;;;;;;5046047;28;20032;-76
2023/01/02 04:56:06;;;;;;;3.13;1.60;;;;;;;;;;5026145;28;20501;-77
2023/01/02 04:58:32;;;;;;;4.20;1.33;;;;;;;;;;5033477;28;20450;-77
2023/01/02 05:00:57;;;;;;;1.98;1.25;;;;;;;;;;5022062;28;20100;-77
2023/01/02 05:03:23;;;;;;;2.72;1.48;;;;;;;;;;5027196;28;20024;-77
2023/01/02 05:05:48;;;;;;;2.85;1.42;;;;;;;;;;5026585;28;20059;-77
2023/01/02 05:08:13;;;;;;;3.58;1.70;;;;;;;;;;5044988;28;20091;-77
2023/01/02 05:10:39;;;;;;;3.40;1.48;;;;;;;;;;5044653;28;20029;-77
2023/01/02 05:13:04;;;;;;;6.20;1.45;;;;;;;;;;5045564;28;20024;-77
2023/01/02 05:15:30;;;;;;;1.52;1.13;;;;;;;;;;5044960;28;20124;-77
2023/01/02 05:17:56;;;;;;;2.75;1.33;;;;;;;;;;5038063;28;20572;-76
2023/01/02 05:20:21;;;;;;;4.07;1.50;;;;;;;;;;5034114;28;20037;-76
2023/01/02 05:25:32;;;;;;;3.47;1.40;;;;;;;;;;5041934;28;20044;-77
2023/01/02 05:27:57;;;;;;;3.90;1.30;;;;;;;;;;5027395;28;20028;-77
2023/01/02 05:30:23;;;;;;;3.00;1.40;;;;;;;;;;5044760;28;20029;-77
2023/01/02 05:32:50;;;;;;;3.35;1.52;;;;;;;;;;5033198;28;20521;-77
2023/01/02 05:35:15;;;;;;;1.92;1.27;;;;;;;;;;5017857;28;20037;-77
2023/01/02 05:37:40;;;;;;;2.47;1.67;;;;;;;;;;5045622;28;20067;-77
2023/01/02 05:40:06;;;;;;;2.25;1.13;;;;;;;;;;5026033;28;20032;-77
2023/01/02 05:42:32;;;;;;;6.07;1.67;;;;;;;;;;5044408;28;20040;-77
2023/01/02 05:44:57;;;;;;;3.28;1.58;;;;;;;;;;5035487;28;20036;-77
2023/01/02 05:47:22;;;;;;;2.55;1.42;;;;;;;;;;5024537;28;20044;-77
2023/01/02 05:49:48;;;;;;;3.28;1.70;;;;;;;;;;5012268;28;20033;-77
2023/01/02 05:52:13;;;;;;;2.22;1.70;;;;;;;;;;5020764;28;20021;-77
2023/01/02 05:54:39;;;;;;;3.08;1.67;;;;;;;;;;5042658;28;20029;-77
2023/01/02 05:57:04;;;;;;;2.15;1.42;;;;;;;;;;5044829;28;20036;-77
2023/01/02 05:59:29;;;;;;;4.05;1.52;;;;;;;;;;5043731;28;20526;-77
2023/01/02 06:01:55;;;;;;;1.92;1.30;;;;;;;;;;5027214;28;20025;-77
2023/01/02 06:04:20;;;;;;;1.40;1.10;;;;;;;;;;5043765;28;20048;-77
2023/01/02 06:06:46;;;;;;;1.70;1.02;;;;;;;;;;5043580;28;20578;-77
2023/01/02 06:09:13;;;;;;;2.00;1.08;;;;;;;;;;5022479;28;20036;-77
2023/01/02 06:11:39;;;;;;;3.25;1.73;;;;;;;;;;5045303;28;20029;-77
2023/01/02 06:14:04;;;;;;;1.50;0.98;;;;;;;;;;5028316;28;20098;-76
2023/01/02 06:16:30;;;;;;;2.20;1.40;;;;;;;;;;5046886;28;20029;-77
2023/01/02 06:18:55;;;;;;;2.38;1.20;;;;;;;;;;5029624;28;20010;-77
2023/01/02 06:21:21;;;;;;;2.33;1.00;;;;;;;;;;5046828;28;20033;-77
2023/01/02 06:23:47;;;;;;;3.08;0.93;;;;;;;;;;5028539;28;20225;-77
2023/01/02 06:26:16;;;;;;;3.15;1.10;;;;;;;;;;5036512;28;20045;-77
2023/01/02 06:28:42;;;;;;;2.00;1.10;;;;;;;;;;5044648;28;20029;-77
2023/01/02 06:31:13;;;;;;;1.33;0.88;;;;;;;;;;5048316;28;20095;-77
2023/01/02 06:33:39;;;;;;;1.02;0.75;;;;;;;;;;5029172;28;20043;-77
2023/01/02 06:36:25;;;;;;;1.65;0.77;;;;;;;;;;5049011;28;20071;-77
2023/01/02 06:38:50;;;;;;;1.85;0.80;;;;;;;;;;5052468;28;20048;-77
2023/01/02 06:41:17;;;;;;;0.95;0.73;;;;;;;;;;5029436;28;20040;-77
2023/01/02 06:43:47;;;;;;;3.28;0.82;;;;;;;;;;5047026;28;20025;-77
2023/01/02 06:46:14;;;;;;;3.28;0.82;;;;;;;;;;5047194;28;20043;-77
2023/01/02 06:48:40;;;;;;;2.05;1.00;;;;;;;;;;5039303;28;20958;-77
2023/01/02 06:51:07;;;;;;;2.05;0.80;;;;;;;;;;5044317;28;20044;-77
2023/01/02 06:53:34;;;;;;;1.80;1.20;;;;;;;;;;5041008;28;20044;-77
2023/01/02 06:56:00;;;;;;;1.15;0.80;;;;;;;;;;5016953;28;20029;-77
2023/01/02 06:58:28;;;;;;;2.10;1.42;;;;;;;;;;5026233;28;20406;-77
2023/01/02 07:00:53;;;;;;;1.40;0.95;;;;;;;;;;5030228;28;20485;-76
2023/01/02 07:03:19;;;;;;;1.30;1.10;;;;;;;;;;5047253;28;20033;-77
2023/01/02 07:05:45;;;;;;;2.92;1.00;;;;;;;;;;5027420;28;20120;-77
2023/01/02 07:08:11;;;;;;;2.40;1.15;;;;;;;;;;5045907;28;20120;-77
2023/01/02 07:10:37;;;;;;;3.42;1.20;;;;;;;;;;5040810;28;20039;-77
2023/01/02 07:13:03;;;;;;;1.95;1.10;;;;;;;;;;5028822;28;20017;-77
2023/01/02 07:15:28;;;;;;;2.47;1.50;;;;;;;;;;5046886;28;20041;-77
2023/01/02 07:17:54;;;;;;;6.97;1.30;;;;;;;;;;5046226;28;20040;-77
2023/01/02 07:20:19;;;;;;;1.90;1.20;;;;;;;;;;5045279;28;20123;-77
2023/01/02 07:22:50;;;;;;;2.25;1.10;;;;;;;;;;5026156;28;20037;-77
2023/01/02 07:25:15;;;;;;;2.10;1.00;;;;;;;;;;5028151;28;20111;-77
2023/01/02 07:27:40;;;;;;;2.65;1.15;;;;;;;;;;5045471;28;20573;-75
2023/01/02 07:30:06;;;;;;;3.33;0.90;;;;;;;;;;5027815;28;20037;-77
2023/01/02 07:32:31;;;;;;;1.60;1.10;;;;;;;;;;5046336;28;20029;-76
2023/01/02 07:34:57;;;;;;;2.10;1.30;;;;;;;;;;5046260;28;20040;-77
2023/01/02 07:37:22;;;;;;;1.02;0.80;;;;;;;;;;5045670;28;20108;-77
2023/01/02 07:39:47;;;;;;;0.98;0.80;;;;;;;;;;5046680;28;20029;-77
2023/01/02 07:42:13;;;;;;;1.95;1.15;;;;;;;;;;5027656;28;20052;-76
2023/01/02 07:44:38;;;;;;;1.80;1.10;;;;;;;;;;5043273;28;20222;-76
2023/01/02 07:47:03;;;;;;;2.17;1.05;;;;;;;;;;5046880;28;20061;-76
2023/01/02 07:49:29;;;;;;;1.85;1.10;;;;;;;;;;5036584;28;20025;-76
2023/01/02 07:51:54;;;;;;;3.35;1.10;;;;;;;;;;5022007;28;20025;-76
2023/01/02 07:54:19;;;;;;;1.98;1.15;;;;;;;;;;5028319;28;20060;-77
2023/01/02 07:56:45;;;;;;;2.22;1.05;;;;;;;;;;5045041;28;20043;-76
2023/01/02 07:59:10;;;;;;;1.98;1.20;;;;;;;;;;5025496;28;20036;-76
2023/01/02 08:01:35;;;;;;;1.55;1.10;;;;;;;;;;5027306;28;20128;-76
2023/01/02 08:04:00;;;;;;;1.85;1.20;;;;;;;;;;5028060;28;20465;-76
2023/01/02 08:06:26;;;;;;;2.67;1.27;;;;;;;;;;5028309;28;20120;-76
2023/01/02 08:08:51;;;;;;;3.58;1.20;;;;;;;;;;5026547;28;20484;-76
2023/01/02 08:11:19;;;;;;;2.05;1.17;;;;;;;;;;5046584;28;20060;-76
2023/01/02 08:13:44;;;;;;;1.42;1.10;;;;;;;;;;5045160;28;20118;-76
2023/01/02 08:16:15;;;;;;;2.35;1.15;;;;;;;;;;5045207;28;20032;-76
2023/01/02 08:18:40;;;;;;;1.25;1.02;;;;;;;;;;5026786;28;20055;-76
2023/01/02 08:21:07;;;;;;;2.60;1.15;;;;;;;;;;5044837;28;20037;-76
2023/01/02 08:23:32;;;;;;;1.92;1.15;;;;;;;;;;5027164;28;20047;-76
2023/01/02 08:26:03;;;;;;;3.40;1.40;;;;;;;;;;5025350;28;20908;-77
2023/01/02 08:28:29;;;;;;;2.75;1.27;;;;;;;;;;5045045;28;20021;-76
2023/01/02 08:30:55;;;;;;;1.52;1.05;;;;;;;;;;5024706;28;20043;-76
2023/01/02 08:33:20;;;;;;;1.58;1.10;;;;;;;;;;5038619;28;20029;-76
2023/01/02 08:35:46;;;;;;;2.53;1.48;;;;;;;;;;5022084;28;20037;-77
2023/01/02 08:38:11;;;;;;;3.33;1.25;;;;;;;;;;5038243;28;20510;-77
2023/01/02 08:40:36;;;;;;;4.53;1.58;;;;;;;;;;5045511;28;20104;-77
2023/01/02 08:43:02;;;;;;;2.58;1.48;;;;;;;;;;5044656;28;20159;-76
2023/01/02 08:45:27;;;;;;;2.65;1.50;;;;;;;;;;5027473;28;20087;-77
2023/01/02 08:47:52;;;;;;;2.95;1.52;;;;;;;;;;5042781;28;20101;-77
2023/01/02 08:50:18;;;;;;;1.98;1.33;;;;;;;;;;5038158;28;20186;-77
2023/01/02 08:52:43;;;;;;;2.00;1.40;;;;;;;;;;5031147;28;20029;-76
2023/01/02 08:55:09;;;;;;;2.88;1.52;;;;;;;;;;5045287;28;20477;-76
2023/01/02 08:57:34;;;;;;;2.25;1.40;;;;;;;;;;5025839;28;20033;-77
2023/01/02 09:00:00;;;;;;;2.55;1.63;;;;;;;;;;5027423;28;20048;-76
2023/01/02 09:02:25;;;;;;;2.63;1.55;;;;;;;;;;5043856;28;20128;-77
2023/01/02 09:04:50;;;;;;;2.45;1.58;;;;;;;;;;5044880;28;20116;-77
2023/01/02 09:07:15;;;;;;;3.28;1.65;;;;;;;;;;5043512;28;20107;-76
2023/01/02 09:09:41;;;;;;;2.65;1.40;;;;;;;;;;5044926;28;20017;-76
2023/01/02 09:12:06;;;;;;;4.95;1.55;;;;;;;;;;5026157;28;20029;-76
2023/01/02 09:14:31;;;;;;;2.40;1.40;;;;;;;;;;5044491;28;20040;-77
2023/01/02 09:16:57;;;;;;;2.20;1.50;;;;;;;;;;5043060;28;20021;-77
2023/01/02 09:19:23;;;;;;;3.28;1.70;;;;;;;;;;5044733;28;20080;-77
2023/01/02 09:21:49;;;;;;;4.07;1.73;;;;;;;;;;5044325;28;20082;-77
2023/01/02 09:24:14;;;;;;;4.97;2.00;;;;;;;;;;5041884;28;20036;-76
2023/01/02 09:26:43;;;;;;;3.15;1.60;;;;;;;;;;5028629;28;20132;-77
2023/01/02 09:29:10;;;;;;;2.92;1.92;;;;;;;;;;5030499;28;20030;-78
2023/01/02 09:31:35;;;;;;;2.65;1.88;;;;;;;;;;5020248;28;20064;-77
2023/01/02 09:34:01;;;;;;;4.10;1.77;;;;;;;;;;5043939;28;20043;-77
2023/01/02 09:36:26;;;;;;;4.13;1.60;;;;;;;;;;5025871;28;20086;-77
2023/01/02 09:38:58;;;;;;;3.50;1.60;;;;;;;;;;5027034;28;20511;-77
2023/01/02 09:41:31;;;;;;;5.30;2.00;;;;;;;;;;5026448;28;20040;-77
2023/01/02 09:44:05;;;;;;;3.53;2.40;;;;;;;;;;5025542;28;20047;-77
2023/01/02 09:46:45;;;;;;;;;;;;;;;;;;5044591;28;20082;-77
2023/01/02 09:49:14;;;;;;;2.65;1.92;;;;;;;;;;5038453;28;20361;-77
2023/01/02 09:51:40;;;;;;;4.10;2.20;;;;;;;;;;5019527;28;20037;-77
2023/01/02 09:54:22;;;;;;;5.85;2.30;;;;;;;;;;5045521;28;20043;-77
2023/01/02 09:56:53;;;;;;;3.83;2.30;;;;;;;;;;5047359;28;20563;-77
2023/01/02 09:59:35;;;;;;;3.78;2.08;;;;;;;;;;5047808;28;20056;-77
2023/01/02 10:02:36;;;;;;;5.63;2.30;;;;;;;;;;5048489;28;20056;-77
2023/01/02 10:05:34;;;;;;;5.53;2.70;;;;;;;;;;5029747;28;20033;-77
2023/01/02 10:08:11;;;;;;;5.43;2.00;;;;;;;;;;5008889;28;20243;-77
2023/01/02 10:10:42;;;;;;;3.50;2.08;;;;;;;;;;5046946;28;20094;-77
2023/01/02 10:13:16;;;;;;;5.55;2.13;;;;;;;;;;5047065;28;20074;-77
2023/01/02 10:15:43;;;;;;;;;;;;;;;;;;5029417;28;20041;-77
2023/01/02 10:18:38;;;;;;;8.15;2.28;;;;;;;;;;5046196;28;19943;-77
2023/01/02 10:21:09;;;;;;;2.95;1.80;;;;;;;;;;5037032;28;20045;-77
2023/01/02 10:23:40;;;;;;;3.85;2.25;;;;;;;;;;5029521;28;20037;-77
2023/01/02 10:26:12;;;;;;;6.55;2.15;;;;;;;;;;5047368;28;20052;-77
2023/01/02 10:28:57;;;;;;;3.25;2.10;;;;;;;;;;5047027;28;20037;-77
2023/01/02 10:31:33;;;;;;;4.88;2.53;;;;;;;;;;5047256;28;20025;-77
2023/01/02 10:34:01;;;;;;;3.85;2.08;;;;;;;;;;5029440;28;20013;-77
2023/01/02 10:36:27;;;;;;;5.28;1.80;;;;;;;;;;5047687;28;20033;-77
2023/01/02 10:39:05;;;;;;;3.40;2.28;;;;;;;;;;5050638;28;20025;-77
2023/01/02 10:41:31;;;;;;;3.92;2.28;;;;;;;;;;5043213;28;20040;-77
2023/01/02 10:44:03;;;;;;;3.00;1.70;;;;;;;;;;5031671;28;20025;-77
2023/01/02 10:46:33;;;;;;;4.30;2.10;;;;;;;;;;5047186;28;20025;-77
2023/01/02 10:48:59;;;;;;;5.22;2.13;;;;;;;;;;5027742;28;20450;-77
2023/01/02 10:51:25;;;;;;;5.68;2.10;;;;;;;;;;5028094;28;20511;-77
2023/01/02 10:54:03;;;;;;;3.83;2.17;;;;;;;;;;5046490;28;20041;-76
2023/01/02 10:56:31;;;;;;;6.28;2.78;;;;;;;;;;5026594;28;20033;-77
2023/01/02 10:58:58;;;;;;;3.10;1.83;;;;;;;;;;5043845;28;20559;-77
2023/01/02 11:01:24;;;;;;;3.90;1.90;;;;;;;;;;5044851;28;20021;-76
2023/01/02 11:03:56;;;;;;;3.35;1.92;;;;;;;;;;5028578;28;20032;-76
2023/01/02 11:06:23;;;;;;;4.47;2.20;;;;;;;;;;5032128;28;20036;-76
2023/01/02 11:08:59;;;;;;;6.90;2.40;;;;;;;;;;5044981;28;20192;-76
2023/01/02 11:11:26;;;;;;;5.97;2.40;;;;;;;;;;5027341;28;20044;-76
2023/01/02 11:13:55;;;;;;;5.95;2.78;;;;;;;;;;5045976;28;20037;-77
2023/01/02 11:16:23;;;;;;;6.53;2.15;;;;;;;;;;5027744;28;20025;-76
2023/01/02 11:18:54;;;;;;;3.67;2.25;;;;;;;;;;5045183;28;20029;-77
2023/01/02 11:21:30;;;;;;;4.80;2.42;;;;;;;;;;5018565;28;20045;-77
2023/01/02 11:24:04;;;;;;;4.75;2.47;;;;;;;;;;5023094;28;20053;-77
2023/01/02 11:26:31;;;;;;;7.68;2.72;;;;;;;;;;5030287;28;20911;-77
2023/01/02 11:29:24;;;;;;;6.10;2.72;;;;;;;;;;5028040;28;20060;-77
2023/01/02 11:31:52;;;;;;;6.43;2.88;;;;;;;;;;5026678;28;20045;-77
2023/01/02 11:34:20;;;;;;;5.10;2.10;;;;;;;;;;5045489;28;20098;-77
2023/01/02 11:37:00;;;;;;;5.30;2.22;;;;;;;;;;5035588;28;20028;-82
2023/01/02 11:39:25;;;;;;;6.47;2.40;;;;;;;;;;5011111;28;20061;-77
2023/01/02 11:45:01;;;;;;;5.13;2.30;;;;;;;;;;5038760;28;20175;-77
2023/01/02 11:47:34;;;;;;;3.20;1.92;;;;;;;;;;5018431;28;20543;-77
2023/01/02 11:50:01;;;;;;;;;;;;;;;;;;5032185;28;20602;-76
2023/01/02 11:52:37;;;;;;;3.70;1.48;;;;;;;;;;5038694;28;20541;-77
2023/01/02 11:55:16;;;;;;;3.38;1.70;;;;;;;;;;5035740;28;20182;-77
2023/01/02 11:57:49;;;;;;;3.58;1.95;;;;;;;;;;5034622;28;20033;-77
2023/01/02 12:00:17;;;;;;;5.55;2.42;;;;;;;;;;5015263;28;20048;-77
2023/01/02 12:02:48;;;;;;;4.50;1.70;;;;;;;;;;5033180;28;20029;-76
2023/01/02 12:05:18;;;;;;;3.85;1.83;;;;;;;;;;5045296;28;20753;-75
2023/01/02 12:07:47;;;;;;;3.08;1.88;;;;;;;;;;5044033;28;20029;-76
2023/01/02 12:10:34;;;;;;;5.07;1.88;;;;;;;;;;5028197;28;20024;-76
2023/01/02 12:13:23;;;;;;;4.93;2.58;;;;;;;;;;5033072;28;20048;-76
2023/01/02 12:15:48;;;;;;;3.95;1.63;;;;;;;;;;5026699;28;20029;-76
2023/01/02 12:18:48;;;;;;;5.38;1.60;;;;;;;;;;5045898;28;20064;-76
2023/01/02 12:21:24;;;;;;;2.55;1.70;;;;;;;;;;5032469;28;20406;-76
2023/01/02 12:24:27;;;;;;;3.75;2.10;;;;;;;;;;5045103;28;20064;-76
2023/01/02 12:27:00;;;;;;;3.80;1.80;;;;;;;;;;5025961;28;20051;-76
2023/01/02 12:29:45;;;;;;;2.53;1.63;;;;;;;;;;5017397;28;20099;-76
2023/01/02 12:32:29;;;;;;;4.38;2.10;;;;;;;;;;5026988;28;20028;-76
2023/01/02 12:35:13;;;;;;;3.65;1.85;;;;;;;;;;5043585;28;20048;-76
2023/01/02 12:37:51;;;;;;;3.53;2.22;;;;;;;;;;5027343;28;20035;-75
2023/01/02 12:40:40;;;;;;;4.95;1.95;;;;;;;;;;5044520;28;20064;-76
2023/01/02 12:43:37;;;;;;;6.65;1.95;;;;;;;;;;5013182;28;20024;-76
2023/01/02 12:46:09;;;;;;;3.50;2.08;;;;;;;;;;5045788;28;20537;-76
2023/01/02 12:48:55;;;;;;;3.70;1.88;;;;;;;;;;5036778;28;20049;-75
2023/01/02 12:51:50;;;;;;;3.85;2.00;;;;;;;;;;5019649;28;20415;-76
2023/01/02 12:54:52;;;;;;;5.30;2.20;;;;;;;;;;5044258;28;20597;-76
2023/01/02 12:57:23;;;;;;;4.10;1.77;;;;;;;;;;5041724;28;20575;-75
2023/01/02 13:00:26;;;;;;;7.05;2.47;;;;;;;;;;5035177;28;20064;-76
2023/01/02 13:03:29;;;;;;;4.93;2.20;;;;;;;;;;5035525;28;20048;-76
2023/01/02 13:06:15;;;;;;;6.10;2.60;;;;;;;;;;5038586;28;20045;-75
2023/01/02 13:09:02;;;;;;;6.43;2.20;;;;;;;;;;5031274;28;20052;-76
2023/01/02 13:11:53;;;;;;;6.30;2.13;;;;;;;;;;5033293;28;20499;-76
2023/01/02 13:14:22;;;;;;;3.55;2.10;;;;;;;;;;5040444;28;20029;-76
2023/01/02 13:17:25;;;;;;;6.45;2.42;;;;;;;;;;5038103;28;20125;-77
2023/01/02 13:19:58;;;;;;;5.05;2.65;;;;;;;;;;5035725;28;20040;-76
2023/01/02 13:22:28;;;;;;;;;;;;;;;;;;5036214;28;20518;-76
2023/01/02 13:24:56;;;;;;;5.50;2.17;;;;;;;;;;5041734;28;19911;-76
2023/01/02 13:27:22;;;;;;;7.03;2.40;;;;;;;;;;5041100;28;20041;-75
2023/01/02 13:29:47;;;;;;;5.50;2.30;;;;;;;;;;5022875;28;20041;-75
2023/01/02 13:32:24;;;;;;;4.45;2.67;;;;;;;;;;5030842;28;20095;-75
2023/01/02 13:34:54;;;;;;;6.22;2.45;;;;;;;;;;5029949;28;20049;-75
2023/01/02 13:37:23;;;;;;;5.50;2.72;;;;;;;;;;5045173;28;20017;-75
2023/01/02 13:40:19;;;;;;;7.32;3.00;;;;;;;;;;5030017;28;20028;-75
2023/01/02 13:42:58;;;;;;;6.60;2.30;;;;;;;;;;5046840;28;20052;-75
2023/01/02 13:45:41;;;;;;;4.25;2.47;;;;;;;;;;5028391;28;20033;-76
2023/01/02 13:48:18;;;;;;;4.18;2.15;;;;;;;;;;5016910;28;20049;-76
2023/01/02 13:50:44;;;;;;;5.05;2.72;;;;;;;;;;5011616;28;20049;-76
2023/01/02 13:53:09;;;;;;;10.50;2.92;;;;;;;;;;5034165;28;20041;-76
2023/01/02 13:55:38;;;;;;;4.82;2.22;;;;;;;;;;5039912;28;20040;-76
2023/01/02 13:58:13;;;;;;;5.20;2.30;;;;;;;;;;5047587;28;20031;-76
2023/01/02 14:00:41;;;;;;;3.70;2.50;;;;;;;;;;5042139;28;20119;-76
2023/01/02 14:03:31;;;;;;;5.07;2.03;;;;;;;;;;5027316;28;20703;-76
2023/01/02 14:05:59;;;;;;;5.45;2.60;;;;;;;;;;5028480;28;20047;-76
2023/01/02 14:08:34;;;;;;;4.97;2.85;;;;;;;;;;5024001;28;20052;-76
2023/01/02 14:11:08;;;;;;;4.43;2.47;;;;;;;;;;5021874;28;20044;-76
2023/01/02 14:13:46;;;;;;;4.68;2.50;;;;;;;;;;5036264;28;20033;-75
2023/01/02 14:16:35;;;;;;;6.50;2.67;;;;;;;;;;5044279;28;20037;-75
2023/01/02 14:19:15;;;;;;;5.93;2.45;;;;;;;;;;5025249;28;20454;-76
2023/01/02 14:21:49;;;;;;;5.20;2.72;;;;;;;;;;5017588;28;20048;-76
2023/01/02 14:24:24;;;;;;;5.80;2.83;;;;;;;;;;5031571;28;20068;-77
2023/01/02 14:26:52;;;;;;;5.38;2.72;;;;;;;;;;5013808;28;20453;-76
2023/01/02 14:29:18;;;;;;;4.75;2.63;;;;;;;;;;5040078;28;20033;-76
2023/01/02 14:31:45;;;;;;;3.85;2.13;;;;;;;;;;5042810;28;20037;-77
2023/01/02 14:34:20;;;;;;;4.45;2.58;;;;;;;;;;5037676;28;20080;-76
2023/01/02 14:36:48;;;;;;;6.10;2.90;;;;;;;;;;5032490;28;20506;-78
2023/01/02 14:39:29;;;;;;;5.35;2.97;;;;;;;;;;5028430;28;20025;-76
2023/01/02 14:44:49;;;;;;;5.13;2.58;;;;;;;;;;5046809;28;20086;-76
2023/01/02 14:47:17;;;;;;;3.55;1.90;;;;;;;;;;5047366;28;20033;-76
2023/01/02 14:49:47;;;;;;;5.75;2.63;;;;;;;;;;5028980;28;20029;-76
2023/01/02 14:52:20;;;;;;;4.95;2.40;;;;;;;;;;5047759;28;20020;-76
2023/01/02 14:54:52;;;;;;;5.22;2.60;;;;;;;;;;5020705;28;20042;-76
2023/01/02 14:57:23;;;;;;;4.90;2.17;;;;;;;;;;5027148;28;20025;-76
2023/01/02 14:59:52;;;;;;;5.68;2.38;;;;;;;;;;5046671;28;20094;-76
2023/01/02 15:02:21;;;;;;;4.90;2.70;;;;;;;;;;5046237;28;20062;-76
2023/01/02 15:04:54;;;;;;;4.78;2.95;;;;;;;;;;5046384;28;20039;-76
2023/01/02 15:07:25;;;;;;;5.85;3.17;;;;;;;;;;5033325;28;20017;-76
2023/01/02 15:10:01;;;;;;;8.52;2.10;;;;;;;;;;5026873;28;20094;-76
2023/01/02 15:15:23;;;;;;;6.72;3.00;;;;;;;;;;5039522;28;20039;-76
2023/01/02 15:17:49;;;;;;;6.72;3.20;;;;;;;;;;5047058;28;20039;-76